createdAt,value
2024-04-23T00:00:14.038Z,2.43
2024-04-23T00:02:42.108Z,2.77
2024-04-23T00:05:12.533Z,2.80
2024-04-23T00:07:40.342Z,2.20
2024-04-23T00:10:11.380Z,2.60
2024-04-23T00:12:39.156Z,2.40
2024-04-23T00:15:12.508Z,2.50
2024-04-23T00:17:40.374Z,2.50
2024-04-23T00:20:12.037Z,2.30
2024-04-23T00:22:42.485Z,2.47
2024-04-23T00:25:10.388Z,2.37
2024-04-23T00:27:40.904Z,2.70
2024-04-23T00:30:12.310Z,2.57
2024-04-23T00:32:42.966Z,2.20
2024-04-23T00:35:10.839Z,2.60
2024-04-23T00:37:41.330Z,2.37
2024-04-23T00:40:10.536Z,2.40
2024-04-23T00:42:40.970Z,2.53
2024-04-23T00:45:15.776Z,2.37
2024-04-23T00:47:46.470Z,2.27
2024-04-23T00:50:14.445Z,2.17
2024-04-23T00:52:45.259Z,2.40
2024-04-23T00:55:14.471Z,2.50
2024-04-23T00:57:45.351Z,2.33
2024-04-23T01:00:16.519Z,2.20
2024-04-23T01:02:47.762Z,2.40
2024-04-23T01:05:15.660Z,2.50
2024-04-23T01:07:46.107Z,2.17
2024-04-23T01:10:14.143Z,2.30
2024-04-23T01:12:44.821Z,2.30
2024-04-23T01:15:16.875Z,2.13
2024-04-23T01:17:51.265Z,2.40
2024-04-23T01:20:21.446Z,2.50
2024-04-23T01:23:07.571Z,2.33
2024-04-23T01:25:38.981Z,2.20
2024-04-23T01:28:13.033Z,2.50
2024-04-23T01:30:42.245Z,2.30
2024-04-23T01:33:15.534Z,2.07
2024-04-23T01:35:45.583Z,2.27
2024-04-23T01:38:17.214Z,2.70
2024-04-23T01:40:45.768Z,2.23
2024-04-23T01:43:19.245Z,2.67
2024-04-23T01:45:47.459Z,2.10
2024-04-23T01:48:18.641Z,2.30
2024-04-23T01:50:47.215Z,2.23
2024-04-23T01:53:17.937Z,2.43
2024-04-23T01:55:46.012Z,2.33
2024-04-23T01:58:19.482Z,2.40
2024-04-23T02:00:48.138Z,2.60
2024-04-23T02:03:21.239Z,2.33
2024-04-23T02:05:51.493Z,2.37
2024-04-23T02:08:22.139Z,2.00
2024-04-23T02:10:50.125Z,2.43
2024-04-23T02:13:23.271Z,2.27
2024-04-23T02:15:51.162Z,2.20
2024-04-23T02:18:21.977Z,2.30
2024-04-23T02:20:49.803Z,2.50
2024-04-23T02:23:20.345Z,2.20
2024-04-23T02:25:48.143Z,2.30
2024-04-23T02:28:18.920Z,2.20
2024-04-23T02:30:49.431Z,2.30
2024-04-23T02:33:20.019Z,2.20
2024-04-23T02:35:47.983Z,2.03
2024-04-23T02:38:18.539Z,2.30
2024-04-23T02:40:46.566Z,2.07
2024-04-23T02:43:16.995Z,2.40
2024-04-23T02:45:44.928Z,2.20
2024-04-23T02:48:18.283Z,2.00
2024-04-23T02:50:46.365Z,2.00
2024-04-23T02:53:16.986Z,2.10
2024-04-23T02:55:44.778Z,2.17
2024-04-23T02:58:15.207Z,2.20
2024-04-23T03:00:43.021Z,2.57
2024-04-23T03:03:13.756Z,2.50
2024-04-23T03:05:44.909Z,2.30
2024-04-23T03:08:15.518Z,2.50
2024-04-23T03:10:43.413Z,2.40
2024-04-23T03:13:13.907Z,2.10
2024-04-23T03:15:41.792Z,2.20
2024-04-23T03:18:12.443Z,2.30
2024-04-23T03:20:40.304Z,2.50
2024-04-23T03:23:13.352Z,2.30
2024-04-23T03:25:41.248Z,2.50
2024-04-23T03:28:11.803Z,2.37
2024-04-23T03:30:39.717Z,2.47
2024-04-23T03:33:10.471Z,2.27
2024-04-23T03:35:38.511Z,2.30
2024-04-23T03:38:09.347Z,2.20
2024-04-23T03:40:42.461Z,2.30
2024-04-23T03:43:13.046Z,2.30
2024-04-23T03:45:43.455Z,2.20
2024-04-23T03:48:16.455Z,2.43
2024-04-23T03:50:44.430Z,2.40
2024-04-23T03:53:14.923Z,2.40
2024-04-23T03:55:45.516Z,2.90
2024-04-23T03:58:15.959Z,2.90
2024-04-23T04:00:43.875Z,3.47
2024-04-23T04:03:30.158Z,2.97
2024-04-23T04:06:09.500Z,2.70
2024-04-23T04:08:42.619Z,2.77
2024-04-23T04:11:16.245Z,3.00
2024-04-23T04:13:47.049Z,2.60
2024-04-23T04:16:14.949Z,2.77
2024-04-23T04:18:45.929Z,2.77
2024-04-23T04:21:14.009Z,2.83
2024-04-23T04:23:44.887Z,3.40
2024-04-23T04:26:16.491Z,2.97
2024-04-23T04:28:47.246Z,3.00
2024-04-23T04:31:15.200Z,2.77
2024-04-23T04:33:45.820Z,2.90
2024-04-23T04:36:14.034Z,2.97
2024-04-23T04:38:44.558Z,2.57
2024-04-23T04:41:15.502Z,2.63
2024-04-23T04:43:46.056Z,2.83
2024-04-23T04:46:15.698Z,2.60
2024-04-23T04:48:52.906Z,2.27
2024-04-23T04:51:21.647Z,2.90
2024-04-23T04:53:52.064Z,2.63
2024-04-23T04:56:25.236Z,2.17
2024-04-23T04:58:53.100Z,2.80
2024-04-23T05:01:23.566Z,2.67
2024-04-23T05:03:51.359Z,3.70
2024-04-23T05:06:23.329Z,3.00
2024-04-23T05:08:52.289Z,2.60
2024-04-23T05:11:25.626Z,3.00
2024-04-23T05:13:53.578Z,3.10
2024-04-23T05:16:24.249Z,2.67
2024-04-23T05:18:52.333Z,2.87
2024-04-23T05:21:22.858Z,3.87
2024-04-23T05:23:50.679Z,3.33
2024-04-23T05:26:21.181Z,2.87
2024-04-23T05:28:51.793Z,2.90
2024-04-23T05:31:38.121Z,2.90
2024-04-23T05:34:08.561Z,2.83
2024-04-23T05:36:38.996Z,2.90
2024-04-23T05:39:10.243Z,3.00
2024-04-23T05:41:40.863Z,3.00
2024-04-23T05:44:14.073Z,2.80
2024-04-23T05:46:44.595Z,2.80
2024-04-23T05:50:11.459Z,3.00
2024-04-23T05:53:58.831Z,3.77
2024-04-23T05:56:47.705Z,4.00
2024-04-23T05:59:18.237Z,3.80
2024-04-23T06:01:48.924Z,3.60
2024-04-23T06:04:16.809Z,3.40
2024-04-23T06:06:47.322Z,3.30
2024-04-23T06:09:15.359Z,3.10
2024-04-23T06:11:46.085Z,3.17
2024-04-23T06:14:14.026Z,3.00
2024-04-23T06:16:47.513Z,3.43
2024-04-23T06:19:33.965Z,3.10
2024-04-23T06:22:04.496Z,3.30
2024-04-23T06:24:32.351Z,3.90
2024-04-23T06:27:02.894Z,3.50
2024-04-23T06:29:30.869Z,3.40
2024-04-23T06:32:04.203Z,3.17
2024-04-23T06:34:32.097Z,3.10
2024-04-23T06:37:02.568Z,2.90
2024-04-23T06:39:30.473Z,3.13
2024-04-23T06:42:01.090Z,3.23
2024-04-23T06:44:29.005Z,2.90
2024-04-23T06:46:59.735Z,3.30
2024-04-23T06:49:30.345Z,2.83
2024-04-23T06:52:01.364Z,3.00
2024-04-23T06:54:29.239Z,3.13
2024-04-23T06:56:59.958Z,2.93
2024-04-23T06:59:30.531Z,3.23
2024-04-23T07:01:58.445Z,3.30
2024-04-23T07:04:29.131Z,3.37
2024-04-23T07:07:01.982Z,2.90
2024-04-23T07:09:32.537Z,2.70
2024-04-23T07:12:03.040Z,2.70
2024-04-23T07:14:33.513Z,2.30
2024-04-23T07:17:01.475Z,2.30
2024-04-23T07:19:32.028Z,2.47
2024-04-23T07:22:02.535Z,2.20
2024-04-23T07:24:33.050Z,2.33
2024-04-23T07:27:00.933Z,2.40
2024-04-23T07:29:31.554Z,1.93
2024-04-23T07:31:59.712Z,1.70
2024-04-23T07:34:30.315Z,1.70
2024-04-23T07:36:58.255Z,1.83
2024-04-23T07:39:31.424Z,1.67
2024-04-23T07:42:01.957Z,2.00
2024-04-23T07:44:29.944Z,1.57
2024-04-23T07:47:00.583Z,1.97
2024-04-23T07:49:28.468Z,1.97
2024-04-23T07:51:59.027Z,2.00
2024-04-23T07:54:29.581Z,2.17
2024-04-23T07:57:00.157Z,2.30
2024-04-23T07:59:28.022Z,2.17
2024-04-23T08:01:58.700Z,2.27
2024-04-23T08:04:26.584Z,2.10
2024-04-23T08:06:57.032Z,2.00
2024-04-23T08:09:24.935Z,2.47
2024-04-23T08:11:58.275Z,2.20
2024-04-23T08:14:26.178Z,1.97
2024-04-23T08:16:56.753Z,1.90
2024-04-23T08:19:24.807Z,1.90
2024-04-23T08:21:55.363Z,1.70
2024-04-23T08:24:23.253Z,2.17
2024-04-23T08:26:53.768Z,1.60
2024-04-23T08:29:24.306Z,1.67
2024-04-23T08:31:54.903Z,1.70
2024-04-23T08:34:23.733Z,1.37
2024-04-23T08:36:55.933Z,1.60
2024-04-23T08:39:26.436Z,1.70
2024-04-23T08:41:57.332Z,1.60
2024-04-23T08:44:34.534Z,1.70
2024-04-23T08:47:02.532Z,1.90
2024-04-23T08:49:33.681Z,1.83
2024-04-23T08:52:01.815Z,1.50
2024-04-23T08:54:32.503Z,1.30
2024-04-23T08:57:01.577Z,1.53
2024-04-23T08:59:36.661Z,1.60
2024-04-23T09:02:06.168Z,1.50
2024-04-23T09:04:37.710Z,1.80
2024-04-23T09:07:06.317Z,1.80
2024-04-23T09:09:37.976Z,1.80
2024-04-23T09:12:07.845Z,1.77
2024-04-23T09:14:45.164Z,1.70
2024-04-23T09:17:13.360Z,1.70
2024-04-23T09:19:44.635Z,1.23
2024-04-23T09:22:13.342Z,1.20
2024-04-23T09:24:43.913Z,1.80
2024-04-23T09:27:12.548Z,2.20
2024-04-23T09:29:45.715Z,2.10
2024-04-23T09:32:18.955Z,2.27
2024-04-23T09:34:58.421Z,2.50
2024-04-23T09:37:26.358Z,2.20
2024-04-23T09:40:05.412Z,2.10
2024-04-23T09:42:35.807Z,2.53
2024-04-23T09:45:10.463Z,2.00
2024-04-23T09:47:41.270Z,6.63
2024-04-23T09:50:13.368Z,12.63
2024-04-23T09:52:41.281Z,5.63
2024-04-23T09:55:11.828Z,2.10
2024-04-23T09:57:39.803Z,2.17
2024-04-23T10:00:14.945Z,1.90
2024-04-23T10:02:47.990Z,2.43
2024-04-23T10:05:29.886Z,2.00
2024-04-23T10:08:09.996Z,2.60
2024-04-23T10:10:49.140Z,2.77
2024-04-23T10:13:23.253Z,2.70
2024-04-23T10:16:00.635Z,2.37
2024-04-23T10:18:36.376Z,2.33
2024-04-23T10:21:12.961Z,3.00
2024-04-23T10:23:43.220Z,2.40
2024-04-23T10:26:15.486Z,2.73
2024-04-23T10:28:44.709Z,2.70
2024-04-23T10:31:18.448Z,2.33
2024-04-23T10:33:49.800Z,2.40
2024-04-23T10:36:23.289Z,2.37
2024-04-23T10:38:52.566Z,2.37
2024-04-23T10:41:25.658Z,2.27
2024-04-23T10:43:58.690Z,2.40
2024-04-23T10:46:30.031Z,2.43
2024-04-23T10:49:00.999Z,2.80
2024-04-23T10:51:29.116Z,2.27
2024-04-23T10:54:01.204Z,2.10
2024-04-23T10:56:30.668Z,2.80
2024-04-23T10:59:06.565Z,2.37
2024-04-23T11:01:47.725Z,2.50
2024-04-23T11:04:20.059Z,2.57
2024-04-23T11:06:49.479Z,1.90
2024-04-23T11:09:25.528Z,3.33
2024-04-23T11:11:57.677Z,4.33
2024-04-23T11:14:40.594Z,2.63
2024-04-23T11:17:11.301Z,2.40
2024-04-23T11:19:43.694Z,2.57
2024-04-23T11:22:15.032Z,2.57
2024-04-23T11:24:47.722Z,2.47
2024-04-23T11:27:16.732Z,2.40
2024-04-23T11:29:50.029Z,2.60
2024-04-23T11:32:21.325Z,2.37
2024-04-23T11:34:53.104Z,2.70
2024-04-23T11:37:25.489Z,2.40
2024-04-23T11:40:00.499Z,2.57
2024-04-23T11:42:29.349Z,2.27
2024-04-23T11:45:01.095Z,2.40
2024-04-23T11:47:33.056Z,2.60
2024-04-23T11:50:08.497Z,2.40
2024-04-23T11:52:37.370Z,2.50
2024-04-23T11:55:10.551Z,2.40
2024-04-23T11:57:40.162Z,2.20
2024-04-23T12:00:11.868Z,2.53
2024-04-23T12:02:42.756Z,2.20
2024-04-23T12:05:15.810Z,2.03
2024-04-23T12:07:44.214Z,2.60
2024-04-23T12:10:33.766Z,2.23
2024-04-23T12:13:04.470Z,2.30
2024-04-23T12:15:36.429Z,2.40
2024-04-23T12:18:07.664Z,2.17
2024-04-23T12:20:40.427Z,2.30
2024-04-23T12:23:13.159Z,2.10
2024-04-23T12:25:45.256Z,2.40
2024-04-23T12:28:13.908Z,2.00
2024-04-23T12:30:45.246Z,2.13
2024-04-23T12:33:16.609Z,2.17
2024-04-23T12:35:47.761Z,1.90
2024-04-23T12:38:15.858Z,2.00
2024-04-23T12:40:46.709Z,2.00
2024-04-23T12:43:15.536Z,1.60
2024-04-23T12:45:47.398Z,2.10
2024-04-23T12:48:18.400Z,1.90
2024-04-23T12:50:51.270Z,1.80
2024-04-23T12:53:24.281Z,1.90
2024-04-23T12:55:53.116Z,1.80
2024-04-23T12:58:23.957Z,2.43
2024-04-23T13:00:51.973Z,2.07
2024-04-23T13:03:26.427Z,1.90
2024-04-23T13:05:56.114Z,2.50
2024-04-23T13:08:29.710Z,2.10
2024-04-23T13:10:58.466Z,1.87
2024-04-23T13:13:29.727Z,2.10
2024-04-23T13:15:58.009Z,1.90
2024-04-23T13:18:31.263Z,2.93
2024-04-23T13:21:00.936Z,2.30
2024-04-23T13:23:31.641Z,1.97
2024-04-23T13:25:59.588Z,2.10
2024-04-23T13:28:30.163Z,2.00
2024-04-23T13:30:58.333Z,2.00
2024-04-23T13:33:31.598Z,1.70
2024-04-23T13:36:01.636Z,1.60
2024-04-23T13:38:32.200Z,2.17
2024-04-23T13:41:00.020Z,2.00
2024-04-23T13:43:30.538Z,2.20
2024-04-23T13:45:58.787Z,1.90
2024-04-23T13:48:32.024Z,1.87
2024-04-23T13:51:00.066Z,1.80
2024-04-23T13:53:30.493Z,1.83
2024-04-23T13:55:58.631Z,2.30
2024-04-23T13:58:30.449Z,1.80
2024-04-23T14:00:59.597Z,2.00
2024-04-23T14:03:32.687Z,1.70
2024-04-23T14:06:04.359Z,1.98
2024-04-23T14:08:35.170Z,1.60
2024-04-23T14:11:03.412Z,2.05
2024-04-23T14:13:36.602Z,2.28
2024-04-23T14:16:11.566Z,2.10
2024-04-23T14:18:45.111Z,2.30
2024-04-23T14:21:15.709Z,1.90
2024-04-23T14:23:47.034Z,2.27
2024-04-23T14:26:18.945Z,2.00
2024-04-23T14:28:47.041Z,1.90
2024-04-23T14:31:17.628Z,1.90
2024-04-23T14:33:48.137Z,2.27
2024-04-23T14:36:18.795Z,2.13
2024-04-23T14:38:47.511Z,1.83
2024-04-23T14:41:19.414Z,2.00
2024-04-23T14:43:50.848Z,2.10
2024-04-23T14:46:22.978Z,1.77
2024-04-23T14:48:54.847Z,2.30
2024-04-23T14:51:25.443Z,2.00
2024-04-23T14:53:53.674Z,1.83
2024-04-23T14:56:25.480Z,1.90
2024-04-23T14:58:53.898Z,1.90
2024-04-23T15:01:25.950Z,1.90
2024-04-23T15:03:57.054Z,1.90
2024-04-23T15:06:28.515Z,2.10
2024-04-23T15:09:00.744Z,2.10
2024-04-23T15:11:31.519Z,2.10
2024-04-23T15:13:59.690Z,1.93
2024-04-23T15:16:30.256Z,2.10
2024-04-23T15:19:02.062Z,2.10
2024-04-23T15:21:32.754Z,2.00
2024-04-23T15:24:00.586Z,2.63
2024-04-23T15:26:31.202Z,2.53
2024-04-23T15:29:01.852Z,5.47
2024-04-23T15:31:29.739Z,2.60
2024-04-23T15:34:03.033Z,1.90
2024-04-23T15:36:31.789Z,1.70
2024-04-23T15:39:04.650Z,1.90
2024-04-23T15:41:32.609Z,1.80
2024-04-23T15:44:03.160Z,2.10
2024-04-23T15:46:31.164Z,1.87
2024-04-23T15:49:04.366Z,1.80
2024-04-23T15:51:32.304Z,1.70
2024-04-23T15:54:02.744Z,2.13
2024-04-23T15:56:30.571Z,2.20
2024-04-23T15:59:01.230Z,2.30
2024-04-23T16:01:29.370Z,2.10
2024-04-23T16:03:59.861Z,3.03
2024-04-23T16:06:32.148Z,2.43
2024-04-23T16:09:03.172Z,3.20
2024-04-23T16:11:31.186Z,2.47
2024-04-23T16:14:01.925Z,2.47
2024-04-23T16:16:29.893Z,2.20
2024-04-23T16:19:00.523Z,2.17
2024-04-23T16:21:31.310Z,2.13
2024-04-23T16:24:01.917Z,2.20
2024-04-23T16:26:29.862Z,2.53
2024-04-23T16:29:00.556Z,2.10
2024-04-23T16:31:28.552Z,2.10
2024-04-23T16:33:59.118Z,2.00
2024-04-23T16:36:28.473Z,2.43
2024-04-23T16:39:04.619Z,2.20
2024-04-23T16:41:38.063Z,2.10
2024-04-23T16:44:22.797Z,2.33
2024-04-23T16:46:54.032Z,2.60
2024-04-23T16:49:27.598Z,2.10
2024-04-23T16:51:57.908Z,2.00
2024-04-23T16:54:43.194Z,1.90
2024-04-23T16:57:18.033Z,5.77
2024-04-23T16:59:51.834Z,2.30
2024-04-23T17:02:22.823Z,2.90
2024-04-23T17:04:59.840Z,3.13
2024-04-23T17:07:35.707Z,2.67
2024-04-23T17:10:12.716Z,2.87
2024-04-23T17:12:42.443Z,2.40
2024-04-23T17:19:45.856Z,2.20
2024-04-23T17:22:14.855Z,2.47
2024-04-23T17:24:47.459Z,2.80
2024-04-23T17:27:19.616Z,2.70
2024-04-23T17:29:50.906Z,3.70
2024-04-23T17:32:19.433Z,3.50
2024-04-23T17:35:44.018Z,3.57
2024-04-23T17:38:20.999Z,2.40
2024-04-23T17:40:59.450Z,3.40
2024-04-23T17:43:40.395Z,2.67
2024-04-23T17:46:14.737Z,3.20
2024-04-23T17:48:44.641Z,3.00
2024-04-23T17:51:20.926Z,3.27
2024-04-23T17:53:53.619Z,2.90
2024-04-23T17:56:27.746Z,2.80
2024-04-23T17:59:01.059Z,2.80
2024-04-23T18:01:35.228Z,3.00
2024-04-23T18:04:10.864Z,3.27
2024-04-23T18:06:44.030Z,2.93
2024-04-23T18:09:14.789Z,2.80
2024-04-23T18:11:49.026Z,3.10
2024-04-23T18:14:23.357Z,2.87
2024-04-23T18:16:57.120Z,3.10
2024-04-23T18:19:28.292Z,3.10
2024-04-23T18:22:02.592Z,2.90
2024-04-23T18:24:33.127Z,2.80
2024-04-23T18:27:06.225Z,3.10
2024-04-23T18:29:39.733Z,2.80
2024-04-23T18:32:14.552Z,2.80
2024-04-23T18:34:45.151Z,2.40
2024-04-23T18:37:18.792Z,2.23
2024-04-23T18:39:49.755Z,2.13
2024-04-23T18:42:22.805Z,1.93
2024-04-23T18:45:20.320Z,2.03
2024-04-23T18:47:51.071Z,2.20
2024-04-23T18:50:19.437Z,2.10
2024-04-23T18:52:51.067Z,2.00
2024-04-23T18:55:30.024Z,2.20
2024-04-23T18:57:58.496Z,2.90
2024-04-23T19:00:32.248Z,2.40
2024-04-23T19:03:01.956Z,2.70
2024-04-23T19:05:33.578Z,2.40
2024-04-23T19:08:02.035Z,2.30
2024-04-23T19:10:32.872Z,2.03
2024-04-23T19:13:01.169Z,2.50
2024-04-23T19:15:35.129Z,2.80
2024-04-23T19:18:03.546Z,3.10
2024-04-23T19:20:34.651Z,2.87
2024-04-23T19:23:02.721Z,3.00
2024-04-23T19:25:33.986Z,3.00
2024-04-23T19:28:03.495Z,2.77
2024-04-23T19:30:36.836Z,3.00
2024-04-23T19:33:08.958Z,3.47
2024-04-23T19:35:39.716Z,3.70
2024-04-23T19:38:07.876Z,3.37
2024-04-23T19:40:38.480Z,3.20
2024-04-23T19:43:07.558Z,2.93
2024-04-23T19:45:43.403Z,2.57
2024-04-23T19:48:11.453Z,2.77
2024-04-23T19:50:43.105Z,3.27
2024-04-23T19:53:11.081Z,2.97
2024-04-23T19:55:41.732Z,2.80
2024-04-23T19:58:30.165Z,2.80
2024-04-23T20:01:06.936Z,3.03
2024-04-23T20:03:37.686Z,3.70
2024-04-23T20:06:19.743Z,3.17
2024-04-23T20:08:50.309Z,3.40
2024-04-23T20:11:21.134Z,3.60
2024-04-23T20:13:51.805Z,3.77
2024-04-23T20:16:29.147Z,3.07
2024-04-23T20:18:59.890Z,3.23
2024-04-23T20:21:30.559Z,3.67
2024-04-23T20:24:02.746Z,3.60
2024-04-23T20:26:33.707Z,3.20
2024-04-23T20:29:05.149Z,3.70
2024-04-23T20:31:41.750Z,3.57
2024-04-23T20:34:13.053Z,3.30
2024-04-23T20:37:09.857Z,3.10
2024-04-23T20:39:40.854Z,3.93
2024-04-23T20:42:11.767Z,4.13
2024-04-23T20:44:42.511Z,3.83
2024-04-23T20:47:16.206Z,4.03
2024-04-23T20:49:46.809Z,3.80
2024-04-23T20:52:17.524Z,3.43
2024-04-23T20:54:48.152Z,3.57
2024-04-23T20:57:18.860Z,3.53
2024-04-23T20:59:46.782Z,3.30
2024-04-23T21:02:20.163Z,3.53
2024-04-23T21:04:50.953Z,3.60
2024-04-23T21:07:21.891Z,3.57
2024-04-23T21:09:53.411Z,3.57
2024-04-23T21:12:26.175Z,4.33
2024-04-23T21:15:03.494Z,3.70
2024-04-23T21:17:36.971Z,4.50
2024-04-23T21:20:12.213Z,3.70
2024-04-23T21:22:42.826Z,3.60
2024-04-23T21:25:13.435Z,3.80
2024-04-23T21:27:44.191Z,3.97
2024-04-23T21:30:15.303Z,3.57
2024-04-23T21:32:50.663Z,3.40
2024-04-23T21:35:21.606Z,3.87
2024-04-23T21:37:52.272Z,3.17
2024-04-23T21:40:22.990Z,3.23
2024-04-23T21:42:53.814Z,3.60
2024-04-23T21:45:24.618Z,3.20
2024-04-23T21:47:58.208Z,3.20
2024-04-23T21:50:28.886Z,3.67
2024-04-23T21:53:02.623Z,3.20
2024-04-23T21:55:33.212Z,3.30
2024-04-23T21:58:03.793Z,3.90
2024-04-23T22:00:34.423Z,3.50
2024-04-23T22:03:08.597Z,3.50
2024-04-23T22:05:39.726Z,3.40
2024-04-23T22:08:10.667Z,3.27
2024-04-23T22:10:41.353Z,3.07
2024-04-23T22:13:13.101Z,3.40
2024-04-23T22:15:44.502Z,3.43
2024-04-23T22:18:18.039Z,3.30
2024-04-23T22:20:48.810Z,3.03
2024-04-23T22:23:19.624Z,3.57
2024-04-23T22:25:50.501Z,3.20
2024-04-23T22:28:22.208Z,3.07
2024-04-23T22:30:52.890Z,3.53
2024-04-23T22:33:26.227Z,3.50
2024-04-23T22:35:56.902Z,3.40
2024-04-23T22:38:27.651Z,3.10
2024-04-23T22:40:59.041Z,3.23
2024-04-23T22:43:29.918Z,3.40
2024-04-23T22:46:00.578Z,3.73
2024-04-23T22:48:37.680Z,3.60
2024-04-23T22:51:08.735Z,3.30
2024-04-23T22:53:39.519Z,3.80
2024-04-23T22:56:10.605Z,3.70
2024-04-23T22:58:41.325Z,3.60
2024-04-23T23:01:12.103Z,3.50
2024-04-23T23:03:45.467Z,3.60
2024-04-23T23:06:16.120Z,3.73
2024-04-23T23:08:46.726Z,4.23
2024-04-23T23:11:17.436Z,3.80
2024-04-23T23:13:48.363Z,3.50
2024-04-23T23:16:19.111Z,4.10
2024-04-23T23:18:52.589Z,4.10
2024-04-23T23:21:23.221Z,3.63
2024-04-23T23:23:54.100Z,4.00
2024-04-23T23:26:24.798Z,3.40
2024-04-23T23:28:57.132Z,3.50
2024-04-23T23:31:27.832Z,3.67
2024-04-23T23:34:01.156Z,3.10
2024-04-23T23:36:31.805Z,3.30
2024-04-23T23:39:03.888Z,3.60
2024-04-23T23:41:34.510Z,3.27
2024-04-23T23:44:05.189Z,3.50
2024-04-23T23:46:38.270Z,3.27
2024-04-23T23:49:11.891Z,3.33
2024-04-23T23:51:42.667Z,3.20
2024-04-23T23:54:11.904Z,3.20
2024-04-23T23:56:42.528Z,3.23
2024-04-23T23:59:13.197Z,2.97
